sensor_id;sensor_type;location;lat;lon;timestamp;P1;durP1;ratioP1;P2;durP2;ratioP2
55800;SDS011;41730;51.960;20.158;2022-12-29T00:01:38;13.10;;;6.30;;
55800;SDS011;41730;51.960;20.158;2022-12-29T00:04:11;9.80;;;6.10;;
55800;SDS011;41730;51.960;20.158;2022-12-29T00:06:44;10.10;;;5.70;;
55800;SDS011;41730;51.960;20.158;2022-12-29T00:09:16;10.10;;;5.90;;
55800;SDS011;41730;51.960;20.158;2022-12-29T00:11:48;13.00;;;6.30;;
55800;SDS011;41730;51.960;20.158;2022-12-29T00:14:20;8.40;;;4.80;;
55800;SDS011;41730;51.960;20.158;2022-12-29T00:17:08;13.00;;;5.70;;
55800;SDS011;41730;51.960;20.158;2022-12-29T00:19:41;9.00;;;5.10;;
55800;SDS011;41730;51.960;20.158;2022-12-29T00:22:26;9.50;;;5.10;;
55800;SDS011;41730;51.960;20.158;2022-12-29T00:25:15;11.10;;;5.60;;
55800;SDS011;41730;51.960;20.158;2022-12-29T00:28:04;10.60;;;5.10;;
55800;SDS011;41730;51.960;20.158;2022-12-29T00:30:54;9.50;;;4.80;;
55800;SDS011;41730;51.960;20.158;2022-12-29T00:33:47;10.20;;;5.20;;
55800;SDS011;41730;51.960;20.158;2022-12-29T00:36:36;10.20;;;5.20;;
55800;SDS011;41730;51.960;20.158;2022-12-29T00:42:03;8.80;;;4.70;;
55800;SDS011;41730;51.960;20.158;2022-12-29T00:45:01;10.50;;;5.00;;
55800;SDS011;41730;51.960;20.158;2022-12-29T00:47:34;8.90;;;4.90;;
55800;SDS011;41730;51.960;20.158;2022-12-29T00:50:06;11.40;;;4.90;;
55800;SDS011;41730;51.960;20.158;2022-12-29T00:52:38;9.30;;;4.50;;
55800;SDS011;41730;51.960;20.158;2022-12-29T00:55:10;9.90;;;5.20;;
55800;SDS011;41730;51.960;20.158;2022-12-29T00:57:41;10.00;;;5.40;;
55800;SDS011;41730;51.960;20.158;2022-12-29T01:00:14;12.20;;;5.20;;
55800;SDS011;41730;51.960;20.158;2022-12-29T01:02:46;11.40;;;5.60;;
55800;SDS011;41730;51.960;20.158;2022-12-29T01:05:18;11.00;;;5.40;;
55800;SDS011;41730;51.960;20.158;2022-12-29T01:07:49;14.30;;;5.80;;
55800;SDS011;41730;51.960;20.158;2022-12-29T01:10:21;13.20;;;5.90;;
55800;SDS011;41730;51.960;20.158;2022-12-29T01:12:53;14.20;;;6.30;;
55800;SDS011;41730;51.960;20.158;2022-12-29T01:15:24;16.90;;;6.20;;
55800;SDS011;41730;51.960;20.158;2022-12-29T01:17:56;8.90;;;5.00;;
55800;SDS011;41730;51.960;20.158;2022-12-29T01:20:28;9.50;;;4.60;;
55800;SDS011;41730;51.960;20.158;2022-12-29T01:22:59;11.40;;;5.20;;
55800;SDS011;41730;51.960;20.158;2022-12-29T01:25:32;8.90;;;4.70;;
55800;SDS011;41730;51.960;20.158;2022-12-29T01:28:03;8.90;;;5.30;;
55800;SDS011;41730;51.960;20.158;2022-12-29T01:30:36;9.00;;;4.70;;
55800;SDS011;41730;51.960;20.158;2022-12-29T01:33:08;11.00;;;4.60;;
55800;SDS011;41730;51.960;20.158;2022-12-29T01:35:39;8.90;;;4.50;;
55800;SDS011;41730;51.960;20.158;2022-12-29T01:38:11;8.20;;;4.30;;
55800;SDS011;41730;51.960;20.158;2022-12-29T01:40:45;7.90;;;3.60;;
55800;SDS011;41730;51.960;20.158;2022-12-29T01:43:17;8.50;;;4.40;;
55800;SDS011;41730;51.960;20.158;2022-12-29T01:45:50;10.00;;;4.80;;
55800;SDS011;41730;51.960;20.158;2022-12-29T01:48:23;7.10;;;3.90;;
55800;SDS011;41730;51.960;20.158;2022-12-29T01:50:55;7.40;;;4.20;;
55800;SDS011;41730;51.960;20.158;2022-12-29T01:53:27;8.30;;;4.20;;
55800;SDS011;41730;51.960;20.158;2022-12-29T01:56:03;8.40;;;4.00;;
55800;SDS011;41730;51.960;20.158;2022-12-29T01:58:39;7.40;;;3.60;;
55800;SDS011;41730;51.960;20.158;2022-12-29T02:01:15;7.10;;;3.80;;
55800;SDS011;41730;51.960;20.158;2022-12-29T02:03:50;6.20;;;3.60;;
55800;SDS011;41730;51.960;20.158;2022-12-29T02:06:23;6.60;;;3.40;;
55800;SDS011;41730;51.960;20.158;2022-12-29T02:08:58;6.70;;;3.30;;
55800;SDS011;41730;51.960;20.158;2022-12-29T02:11:30;6.40;;;3.20;;
55800;SDS011;41730;51.960;20.158;2022-12-29T02:14:07;6.90;;;3.30;;
55800;SDS011;41730;51.960;20.158;2022-12-29T02:16:43;8.80;;;3.90;;
55800;SDS011;41730;51.960;20.158;2022-12-29T02:19:39;6.30;;;3.10;;
55800;SDS011;41730;51.960;20.158;2022-12-29T02:22:28;6.00;;;3.30;;
55800;SDS011;41730;51.960;20.158;2022-12-29T02:28:33;5.50;;;3.10;;
55800;SDS011;41730;51.960;20.158;2022-12-29T02:31:26;6.60;;;3.00;;
55800;SDS011;41730;51.960;20.158;2022-12-29T02:34:09;6.80;;;3.00;;
55800;SDS011;41730;51.960;20.158;2022-12-29T02:36:50;5.90;;;3.50;;
55800;SDS011;41730;51.960;20.158;2022-12-29T02:39:32;9.10;;;3.60;;
55800;SDS011;41730;51.960;20.158;2022-12-29T02:42:12;7.20;;;3.50;;
55800;SDS011;41730;51.960;20.158;2022-12-29T02:44:52;5.90;;;3.10;;
55800;SDS011;41730;51.960;20.158;2022-12-29T02:47:35;5.10;;;3.00;;
55800;SDS011;41730;51.960;20.158;2022-12-29T02:50:11;6.70;;;3.40;;
55800;SDS011;41730;51.960;20.158;2022-12-29T02:52:49;5.70;;;3.20;;
55800;SDS011;41730;51.960;20.158;2022-12-29T02:55:24;5.50;;;3.20;;
55800;SDS011;41730;51.960;20.158;2022-12-29T03:00:52;5.70;;;3.00;;
55800;SDS011;41730;51.960;20.158;2022-12-29T03:03:37;5.40;;;3.10;;
55800;SDS011;41730;51.960;20.158;2022-12-29T03:06:25;6.30;;;3.40;;
55800;SDS011;41730;51.960;20.158;2022-12-29T03:09:07;5.40;;;2.80;;
55800;SDS011;41730;51.960;20.158;2022-12-29T03:14:49;7.10;;;3.40;;
55800;SDS011;41730;51.960;20.158;2022-12-29T03:17:48;6.50;;;3.10;;
55800;SDS011;41730;51.960;20.158;2022-12-29T03:20:27;6.80;;;3.70;;
55800;SDS011;41730;51.960;20.158;2022-12-29T03:23:07;5.40;;;2.90;;
55800;SDS011;41730;51.960;20.158;2022-12-29T03:25:41;5.60;;;3.20;;
55800;SDS011;41730;51.960;20.158;2022-12-29T03:28:18;5.20;;;2.80;;
55800;SDS011;41730;51.960;20.158;2022-12-29T03:30:52;6.90;;;3.60;;
55800;SDS011;41730;51.960;20.158;2022-12-29T03:33:25;6.10;;;2.80;;
55800;SDS011;41730;51.960;20.158;2022-12-29T03:36:00;4.70;;;2.80;;
55800;SDS011;41730;51.960;20.158;2022-12-29T03:41:09;7.70;;;3.20;;
55800;SDS011;41730;51.960;20.158;2022-12-29T03:43:46;7.50;;;3.50;;
55800;SDS011;41730;51.960;20.158;2022-12-29T03:46:18;6.70;;;3.40;;
55800;SDS011;41730;51.960;20.158;2022-12-29T03:48:50;4.50;;;2.80;;
55800;SDS011;41730;51.960;20.158;2022-12-29T03:51:22;5.80;;;3.50;;
55800;SDS011;41730;51.960;20.158;2022-12-29T03:53:54;6.80;;;3.40;;
55800;SDS011;41730;51.960;20.158;2022-12-29T03:56:25;5.80;;;3.00;;
55800;SDS011;41730;51.960;20.158;2022-12-29T03:58:57;5.70;;;3.10;;
55800;SDS011;41730;51.960;20.158;2022-12-29T04:01:28;6.00;;;3.10;;
55800;SDS011;41730;51.960;20.158;2022-12-29T04:04:01;4.70;;;2.80;;
55800;SDS011;41730;51.960;20.158;2022-12-29T04:06:32;5.80;;;3.30;;
55800;SDS011;41730;51.960;20.158;2022-12-29T04:09:04;7.40;;;3.50;;
55800;SDS011;41730;51.960;20.158;2022-12-29T04:11:36;5.40;;;3.10;;
55800;SDS011;41730;51.960;20.158;2022-12-29T04:14:07;8.40;;;3.70;;
55800;SDS011;41730;51.960;20.158;2022-12-29T04:16:39;7.10;;;3.60;;
55800;SDS011;41730;51.960;20.158;2022-12-29T04:19:12;6.70;;;3.30;;
55800;SDS011;41730;51.960;20.158;2022-12-29T04:21:45;5.70;;;3.30;;
55800;SDS011;41730;51.960;20.158;2022-12-29T04:24:17;7.80;;;3.50;;
55800;SDS011;41730;51.960;20.158;2022-12-29T04:26:49;5.60;;;3.40;;
55800;SDS011;41730;51.960;20.158;2022-12-29T04:29:20;6.80;;;3.30;;
55800;SDS011;41730;51.960;20.158;2022-12-29T04:31:52;8.30;;;4.50;;
55800;SDS011;41730;51.960;20.158;2022-12-29T04:34:25;9.90;;;4.00;;
55800;SDS011;41730;51.960;20.158;2022-12-29T04:37:01;7.40;;;3.60;;
55800;SDS011;41730;51.960;20.158;2022-12-29T04:39:36;5.60;;;2.90;;
55800;SDS011;41730;51.960;20.158;2022-12-29T04:42:08;8.90;;;3.80;;
55800;SDS011;41730;51.960;20.158;2022-12-29T04:44:40;6.80;;;3.70;;
55800;SDS011;41730;51.960;20.158;2022-12-29T04:47:12;8.00;;;3.90;;
55800;SDS011;41730;51.960;20.158;2022-12-29T04:49:44;6.60;;;3.50;;
55800;SDS011;41730;51.960;20.158;2022-12-29T04:52:15;8.70;;;3.90;;
55800;SDS011;41730;51.960;20.158;2022-12-29T04:54:47;6.70;;;3.60;;
55800;SDS011;41730;51.960;20.158;2022-12-29T04:57:19;9.00;;;4.00;;
55800;SDS011;41730;51.960;20.158;2022-12-29T04:59:50;7.70;;;4.20;;
55800;SDS011;41730;51.960;20.158;2022-12-29T05:02:22;6.10;;;3.50;;
55800;SDS011;41730;51.960;20.158;2022-12-29T05:04:54;7.60;;;4.00;;
55800;SDS011;41730;51.960;20.158;2022-12-29T05:07:26;6.70;;;3.20;;
55800;SDS011;41730;51.960;20.158;2022-12-29T05:09:58;6.70;;;3.40;;
55800;SDS011;41730;51.960;20.158;2022-12-29T05:12:30;8.40;;;3.70;;
55800;SDS011;41730;51.960;20.158;2022-12-29T05:15:04;7.30;;;3.70;;
55800;SDS011;41730;51.960;20.158;2022-12-29T05:17:38;7.20;;;3.80;;
55800;SDS011;41730;51.960;20.158;2022-12-29T05:20:10;7.80;;;4.00;;
55800;SDS011;41730;51.960;20.158;2022-12-29T05:22:42;7.30;;;3.90;;
55800;SDS011;41730;51.960;20.158;2022-12-29T05:25:13;6.90;;;3.90;;
55800;SDS011;41730;51.960;20.158;2022-12-29T05:27:46;7.50;;;3.80;;
55800;SDS011;41730;51.960;20.158;2022-12-29T05:30:18;7.90;;;4.20;;
55800;SDS011;41730;51.960;20.158;2022-12-29T05:32:49;9.00;;;4.50;;
55800;SDS011;41730;51.960;20.158;2022-12-29T05:35:21;8.10;;;4.30;;
55800;SDS011;41730;51.960;20.158;2022-12-29T05:37:53;8.80;;;4.10;;
55800;SDS011;41730;51.960;20.158;2022-12-29T05:40:25;8.10;;;3.80;;
55800;SDS011;41730;51.960;20.158;2022-12-29T05:42:56;9.60;;;4.60;;
55800;SDS011;41730;51.960;20.158;2022-12-29T05:45:28;7.70;;;3.80;;
55800;SDS011;41730;51.960;20.158;2022-12-29T05:48:00;8.00;;;3.60;;
55800;SDS011;41730;51.960;20.158;2022-12-29T05:50:32;8.20;;;4.10;;
55800;SDS011;41730;51.960;20.158;2022-12-29T05:53:04;6.60;;;3.50;;
55800;SDS011;41730;51.960;20.158;2022-12-29T05:55:35;7.20;;;3.50;;
55800;SDS011;41730;51.960;20.158;2022-12-29T05:58:15;8.40;;;4.30;;
55800;SDS011;41730;51.960;20.158;2022-12-29T06:00:47;6.40;;;3.50;;
55800;SDS011;41730;51.960;20.158;2022-12-29T06:03:18;9.10;;;4.50;;
55800;SDS011;41730;51.960;20.158;2022-12-29T06:05:50;13.90;;;5.20;;
55800;SDS011;41730;51.960;20.158;2022-12-29T06:08:22;10.90;;;5.60;;
55800;SDS011;41730;51.960;20.158;2022-12-29T06:10:54;9.30;;;4.90;;
55800;SDS011;41730;51.960;20.158;2022-12-29T06:13:26;10.80;;;5.30;;
55800;SDS011;41730;51.960;20.158;2022-12-29T06:15:57;10.80;;;4.90;;
55800;SDS011;41730;51.960;20.158;2022-12-29T06:18:30;9.10;;;4.30;;
55800;SDS011;41730;51.960;20.158;2022-12-29T06:21:02;10.10;;;4.80;;
55800;SDS011;41730;51.960;20.158;2022-12-29T06:23:35;8.60;;;4.40;;
55800;SDS011;41730;51.960;20.158;2022-12-29T06:26:07;7.80;;;3.60;;
55800;SDS011;41730;51.960;20.158;2022-12-29T06:28:38;8.20;;;4.30;;
55800;SDS011;41730;51.960;20.158;2022-12-29T06:31:10;9.00;;;4.40;;
55800;SDS011;41730;51.960;20.158;2022-12-29T06:33:42;8.90;;;5.00;;
55800;SDS011;41730;51.960;20.158;2022-12-29T06:36:17;8.50;;;4.90;;
55800;SDS011;41730;51.960;20.158;2022-12-29T06:38:49;10.30;;;5.50;;
55800;SDS011;41730;51.960;20.158;2022-12-29T06:41:21;8.30;;;4.60;;
55800;SDS011;41730;51.960;20.158;2022-12-29T06:43:59;8.60;;;4.50;;
55800;SDS011;41730;51.960;20.158;2022-12-29T06:46:30;6.20;;;3.60;;
55800;SDS011;41730;51.960;20.158;2022-12-29T06:49:03;7.70;;;4.20;;
55800;SDS011;41730;51.960;20.158;2022-12-29T06:51:35;9.00;;;4.10;;
55800;SDS011;41730;51.960;20.158;2022-12-29T06:54:06;8.20;;;4.70;;
55800;SDS011;41730;51.960;20.158;2022-12-29T06:56:38;8.10;;;4.20;;
55800;SDS011;41730;51.960;20.158;2022-12-29T06:59:10;9.20;;;4.50;;
55800;SDS011;41730;51.960;20.158;2022-12-29T07:01:41;7.80;;;4.40;;
55800;SDS011;41730;51.960;20.158;2022-12-29T07:04:13;6.60;;;4.40;;
55800;SDS011;41730;51.960;20.158;2022-12-29T07:06:46;7.40;;;4.20;;
55800;SDS011;41730;51.960;20.158;2022-12-29T07:09:17;8.40;;;4.40;;
55800;SDS011;41730;51.960;20.158;2022-12-29T07:11:49;10.40;;;4.30;;
55800;SDS011;41730;51.960;20.158;2022-12-29T07:14:21;8.70;;;4.50;;
55800;SDS011;41730;51.960;20.158;2022-12-29T07:16:53;9.40;;;4.50;;
55800;SDS011;41730;51.960;20.158;2022-12-29T07:19:25;9.10;;;3.80;;
55800;SDS011;41730;51.960;20.158;2022-12-29T07:21:57;5.90;;;3.50;;
55800;SDS011;41730;51.960;20.158;2022-12-29T07:24:29;7.70;;;3.90;;
55800;SDS011;41730;51.960;20.158;2022-12-29T07:27:01;8.30;;;4.60;;
55800;SDS011;41730;51.960;20.158;2022-12-29T07:29:33;7.50;;;3.80;;
55800;SDS011;41730;51.960;20.158;2022-12-29T07:32:05;8.70;;;4.40;;
55800;SDS011;41730;51.960;20.158;2022-12-29T07:34:37;8.60;;;4.30;;
55800;SDS011;41730;51.960;20.158;2022-12-29T07:37:09;7.70;;;3.70;;
55800;SDS011;41730;51.960;20.158;2022-12-29T07:39:44;8.40;;;4.00;;
55800;SDS011;41730;51.960;20.158;2022-12-29T07:42:15;8.00;;;3.90;;
55800;SDS011;41730;51.960;20.158;2022-12-29T07:44:47;8.90;;;4.40;;
55800;SDS011;41730;51.960;20.158;2022-12-29T07:47:19;7.70;;;4.20;;
55800;SDS011;41730;51.960;20.158;2022-12-29T07:49:51;6.90;;;4.00;;
55800;SDS011;41730;51.960;20.158;2022-12-29T07:52:23;9.90;;;4.60;;
55800;SDS011;41730;51.960;20.158;2022-12-29T07:54:54;10.50;;;4.60;;
55800;SDS011;41730;51.960;20.158;2022-12-29T07:57:26;11.40;;;4.70;;
55800;SDS011;41730;51.960;20.158;2022-12-29T07:59:59;9.80;;;4.30;;
55800;SDS011;41730;51.960;20.158;2022-12-29T08:02:33;8.60;;;4.30;;
55800;SDS011;41730;51.960;20.158;2022-12-29T08:05:05;11.00;;;4.30;;
55800;SDS011;41730;51.960;20.158;2022-12-29T08:07:37;8.40;;;4.30;;
55800;SDS011;41730;51.960;20.158;2022-12-29T08:10:09;8.20;;;4.90;;
55800;SDS011;41730;51.960;20.158;2022-12-29T08:12:41;12.30;;;4.80;;
55800;SDS011;41730;51.960;20.158;2022-12-29T08:15:14;9.30;;;4.90;;
55800;SDS011;41730;51.960;20.158;2022-12-29T08:17:45;8.10;;;4.50;;
55800;SDS011;41730;51.960;20.158;2022-12-29T08:20:17;9.80;;;4.40;;
55800;SDS011;41730;51.960;20.158;2022-12-29T08:22:49;9.00;;;4.50;;
55800;SDS011;41730;51.960;20.158;2022-12-29T08:25:22;8.70;;;4.50;;
55800;SDS011;41730;51.960;20.158;2022-12-29T08:27:53;12.10;;;4.90;;
55800;SDS011;41730;51.960;20.158;2022-12-29T08:30:25;9.00;;;4.70;;
55800;SDS011;41730;51.960;20.158;2022-12-29T08:32:57;8.40;;;4.10;;
55800;SDS011;41730;51.960;20.158;2022-12-29T08:35:29;9.70;;;4.60;;
55800;SDS011;41730;51.960;20.158;2022-12-29T08:38:01;11.40;;;4.50;;
55800;SDS011;41730;51.960;20.158;2022-12-29T08:40:33;8.60;;;4.50;;
55800;SDS011;41730;51.960;20.158;2022-12-29T08:43:05;10.70;;;6.00;;
55800;SDS011;41730;51.960;20.158;2022-12-29T08:45:37;9.50;;;4.70;;
55800;SDS011;41730;51.960;20.158;2022-12-29T08:48:09;10.20;;;5.20;;
55800;SDS011;41730;51.960;20.158;2022-12-29T08:50:42;9.10;;;4.80;;
55800;SDS011;41730;51.960;20.158;2022-12-29T08:53:14;11.60;;;4.90;;
55800;SDS011;41730;51.960;20.158;2022-12-29T08:55:46;11.40;;;5.30;;
55800;SDS011;41730;51.960;20.158;2022-12-29T08:58:31;11.30;;;5.80;;
55800;SDS011;41730;51.960;20.158;2022-12-29T09:01:03;13.20;;;5.90;;
55800;SDS011;41730;51.960;20.158;2022-12-29T09:03:35;12.80;;;5.40;;
55800;SDS011;41730;51.960;20.158;2022-12-29T09:06:27;12.70;;;6.20;;
55800;SDS011;41730;51.960;20.158;2022-12-29T09:09:06;11.60;;;5.60;;
55800;SDS011;41730;51.960;20.158;2022-12-29T09:11:38;9.40;;;5.10;;
55800;SDS011;41730;51.960;20.158;2022-12-29T09:14:10;11.10;;;5.60;;
55800;SDS011;41730;51.960;20.158;2022-12-29T09:16:42;9.70;;;4.90;;
55800;SDS011;41730;51.960;20.158;2022-12-29T09:19:30;11.10;;;5.40;;
55800;SDS011;41730;51.960;20.158;2022-12-29T09:22:02;9.50;;;4.60;;
55800;SDS011;41730;51.960;20.158;2022-12-29T09:24:33;9.70;;;5.20;;
55800;SDS011;41730;51.960;20.158;2022-12-29T09:27:05;12.40;;;5.50;;
55800;SDS011;41730;51.960;20.158;2022-12-29T09:29:39;9.80;;;5.10;;
55800;SDS011;41730;51.960;20.158;2022-12-29T09:32:18;10.50;;;5.20;;
55800;SDS011;41730;51.960;20.158;2022-12-29T09:34:51;9.30;;;5.10;;
55800;SDS011;41730;51.960;20.158;2022-12-29T09:37:22;15.20;;;5.70;;
55800;SDS011;41730;51.960;20.158;2022-12-29T09:39:57;13.40;;;6.10;;
55800;SDS011;41730;51.960;20.158;2022-12-29T09:42:29;12.90;;;6.90;;
55800;SDS011;41730;51.960;20.158;2022-12-29T09:45:10;10.90;;;5.60;;
55800;SDS011;41730;51.960;20.158;2022-12-29T09:47:45;10.20;;;5.20;;
55800;SDS011;41730;51.960;20.158;2022-12-29T09:50:20;11.70;;;5.90;;
55800;SDS011;41730;51.960;20.158;2022-12-29T09:52:58;12.40;;;6.40;;
55800;SDS011;41730;51.960;20.158;2022-12-29T09:55:35;10.30;;;5.20;;
55800;SDS011;41730;51.960;20.158;2022-12-29T09:58:12;8.70;;;4.30;;
55800;SDS011;41730;51.960;20.158;2022-12-29T10:00:49;10.50;;;5.20;;
55800;SDS011;41730;51.960;20.158;2022-12-29T10:03:26;10.90;;;4.70;;
55800;SDS011;41730;51.960;20.158;2022-12-29T10:06:08;9.00;;;5.10;;
55800;SDS011;41730;51.960;20.158;2022-12-29T10:08:47;11.50;;;4.90;;
55800;SDS011;41730;51.960;20.158;2022-12-29T10:11:29;9.60;;;4.70;;
55800;SDS011;41730;51.960;20.158;2022-12-29T10:14:16;9.10;;;5.20;;
55800;SDS011;41730;51.960;20.158;2022-12-29T10:16:58;9.20;;;4.70;;
55800;SDS011;41730;51.960;20.158;2022-12-29T10:19:46;9.50;;;4.20;;
55800;SDS011;41730;51.960;20.158;2022-12-29T10:22:32;7.00;;;4.10;;
55800;SDS011;41730;51.960;20.158;2022-12-29T10:25:15;8.60;;;4.80;;
55800;SDS011;41730;51.960;20.158;2022-12-29T10:27:49;8.50;;;5.00;;
55800;SDS011;41730;51.960;20.158;2022-12-29T10:30:23;8.30;;;4.80;;
55800;SDS011;41730;51.960;20.158;2022-12-29T10:32:56;9.00;;;5.10;;
55800;SDS011;41730;51.960;20.158;2022-12-29T10:35:32;11.50;;;5.80;;
55800;SDS011;41730;51.960;20.158;2022-12-29T10:38:12;11.00;;;5.60;;
55800;SDS011;41730;51.960;20.158;2022-12-29T10:40:49;10.50;;;5.20;;
55800;SDS011;41730;51.960;20.158;2022-12-29T10:43:27;10.00;;;4.80;;
55800;SDS011;41730;51.960;20.158;2022-12-29T10:46:01;11.70;;;5.30;;
55800;SDS011;41730;51.960;20.158;2022-12-29T10:48:36;10.50;;;5.10;;
55800;SDS011;41730;51.960;20.158;2022-12-29T10:51:08;10.90;;;5.50;;
55800;SDS011;41730;51.960;20.158;2022-12-29T10:53:42;11.10;;;5.80;;
55800;SDS011;41730;51.960;20.158;2022-12-29T10:56:20;12.00;;;5.60;;
55800;SDS011;41730;51.960;20.158;2022-12-29T10:58:59;10.70;;;5.20;;
55800;SDS011;41730;51.960;20.158;2022-12-29T11:01:37;10.50;;;5.20;;
55800;SDS011;41730;51.960;20.158;2022-12-29T11:04:22;11.50;;;5.70;;
55800;SDS011;41730;51.960;20.158;2022-12-29T11:07:02;9.30;;;5.50;;
55800;SDS011;41730;51.960;20.158;2022-12-29T11:09:43;9.50;;;4.70;;
55800;SDS011;41730;51.960;20.158;2022-12-29T11:12:22;10.40;;;5.70;;
55800;SDS011;41730;51.960;20.158;2022-12-29T11:15:06;10.90;;;5.50;;
55800;SDS011;41730;51.960;20.158;2022-12-29T11:17:44;12.10;;;5.50;;
55800;SDS011;41730;51.960;20.158;2022-12-29T11:20:27;13.90;;;5.90;;
55800;SDS011;41730;51.960;20.158;2022-12-29T11:23:20;13.10;;;6.20;;
55800;SDS011;41730;51.960;20.158;2022-12-29T11:26:11;11.90;;;6.50;;
55800;SDS011;41730;51.960;20.158;2022-12-29T11:28:46;12.10;;;5.70;;
55800;SDS011;41730;51.960;20.158;2022-12-29T11:31:36;11.60;;;6.00;;
55800;SDS011;41730;51.960;20.158;2022-12-29T11:34:16;10.10;;;5.40;;
55800;SDS011;41730;51.960;20.158;2022-12-29T11:36:49;9.40;;;5.20;;
55800;SDS011;41730;51.960;20.158;2022-12-29T11:39:27;12.30;;;6.00;;
55800;SDS011;41730;51.960;20.158;2022-12-29T11:42:03;9.70;;;5.00;;
55800;SDS011;41730;51.960;20.158;2022-12-29T11:44:38;12.50;;;5.50;;
55800;SDS011;41730;51.960;20.158;2022-12-29T11:47:20;10.80;;;5.80;;
55800;SDS011;41730;51.960;20.158;2022-12-29T11:49:57;11.90;;;5.80;;
55800;SDS011;41730;51.960;20.158;2022-12-29T11:52:32;12.80;;;5.70;;
55800;SDS011;41730;51.960;20.158;2022-12-29T11:55:13;8.80;;;5.50;;
55800;SDS011;41730;51.960;20.158;2022-12-29T11:57:50;9.80;;;5.70;;
55800;SDS011;41730;51.960;20.158;2022-12-29T12:00:24;11.30;;;5.60;;
55800;SDS011;41730;51.960;20.158;2022-12-29T12:02:58;11.80;;;5.50;;
55800;SDS011;41730;51.960;20.158;2022-12-29T12:05:35;10.10;;;5.50;;
55800;SDS011;41730;51.960;20.158;2022-12-29T12:08:14;11.30;;;5.60;;
55800;SDS011;41730;51.960;20.158;2022-12-29T12:10:52;10.60;;;5.90;;
55800;SDS011;41730;51.960;20.158;2022-12-29T12:13:29;18.50;;;6.80;;
55800;SDS011;41730;51.960;20.158;2022-12-29T12:16:06;11.20;;;5.50;;
55800;SDS011;41730;51.960;20.158;2022-12-29T12:18:43;11.70;;;5.70;;
55800;SDS011;41730;51.960;20.158;2022-12-29T12:21:20;11.80;;;5.60;;
55800;SDS011;41730;51.960;20.158;2022-12-29T12:24:07;11.50;;;6.10;;
55800;SDS011;41730;51.960;20.158;2022-12-29T12:27:02;14.50;;;6.10;;
55800;SDS011;41730;51.960;20.158;2022-12-29T12:29:43;14.60;;;5.90;;
55800;SDS011;41730;51.960;20.158;2022-12-29T12:32:22;13.10;;;6.80;;
55800;SDS011;41730;51.960;20.158;2022-12-29T12:35:06;13.50;;;6.30;;
55800;SDS011;41730;51.960;20.158;2022-12-29T12:37:51;12.70;;;6.30;;
55800;SDS011;41730;51.960;20.158;2022-12-29T12:43:49;15.90;;;6.80;;
55800;SDS011;41730;51.960;20.158;2022-12-29T12:49:56;14.10;;;7.10;;
55800;SDS011;41730;51.960;20.158;2022-12-29T12:52:56;15.00;;;6.60;;
55800;SDS011;41730;51.960;20.158;2022-12-29T12:55:57;10.90;;;6.40;;
55800;SDS011;41730;51.960;20.158;2022-12-29T12:58:43;12.90;;;6.10;;
55800;SDS011;41730;51.960;20.158;2022-12-29T13:01:28;12.90;;;5.90;;
55800;SDS011;41730;51.960;20.158;2022-12-29T13:04:13;13.70;;;7.00;;
55800;SDS011;41730;51.960;20.158;2022-12-29T13:07:07;9.80;;;5.40;;
55800;SDS011;41730;51.960;20.158;2022-12-29T13:09:51;9.20;;;5.10;;
55800;SDS011;41730;51.960;20.158;2022-12-29T13:12:34;10.70;;;5.80;;
55800;SDS011;41730;51.960;20.158;2022-12-29T13:15:19;11.50;;;5.70;;
55800;SDS011;41730;51.960;20.158;2022-12-29T13:18:03;10.30;;;5.30;;
55800;SDS011;41730;51.960;20.158;2022-12-29T13:20:45;11.80;;;5.70;;
55800;SDS011;41730;51.960;20.158;2022-12-29T13:23:23;11.00;;;5.40;;
55800;SDS011;41730;51.960;20.158;2022-12-29T13:26:02;9.20;;;5.50;;
55800;SDS011;41730;51.960;20.158;2022-12-29T13:28:41;13.20;;;5.90;;
55800;SDS011;41730;51.960;20.158;2022-12-29T13:31:20;8.50;;;5.60;;
55800;SDS011;41730;51.960;20.158;2022-12-29T13:34:00;10.70;;;5.70;;
55800;SDS011;41730;51.960;20.158;2022-12-29T13:36:42;16.70;;;6.50;;
55800;SDS011;41730;51.960;20.158;2022-12-29T13:39:18;11.70;;;5.80;;
55800;SDS011;41730;51.960;20.158;2022-12-29T13:41:54;9.60;;;5.40;;
55800;SDS011;41730;51.960;20.158;2022-12-29T13:44:27;12.20;;;5.90;;
55800;SDS011;41730;51.960;20.158;2022-12-29T13:47:05;11.60;;;5.90;;
55800;SDS011;41730;51.960;20.158;2022-12-29T13:49:45;12.20;;;6.00;;
55800;SDS011;41730;51.960;20.158;2022-12-29T13:52:21;10.60;;;5.50;;
55800;SDS011;41730;51.960;20.158;2022-12-29T13:55:05;11.30;;;5.50;;
55800;SDS011;41730;51.960;20.158;2022-12-29T13:57:50;10.30;;;5.40;;
55800;SDS011;41730;51.960;20.158;2022-12-29T14:00:28;13.20;;;6.10;;
55800;SDS011;41730;51.960;20.158;2022-12-29T14:03:12;9.20;;;5.60;;
55800;SDS011;41730;51.960;20.158;2022-12-29T14:06:13;12.70;;;6.20;;
55800;SDS011;41730;51.960;20.158;2022-12-29T14:08:49;11.90;;;6.20;;
55800;SDS011;41730;51.960;20.158;2022-12-29T14:16:40;12.30;;;5.60;;
55800;SDS011;41730;51.960;20.158;2022-12-29T14:19:13;14.50;;;7.00;;
55800;SDS011;41730;51.960;20.158;2022-12-29T14:21:51;12.10;;;6.20;;
55800;SDS011;41730;51.960;20.158;2022-12-29T14:24:38;11.80;;;5.90;;
55800;SDS011;41730;51.960;20.158;2022-12-29T14:30:51;13.80;;;6.60;;
55800;SDS011;41730;51.960;20.158;2022-12-29T14:33:24;13.00;;;6.40;;
55800;SDS011;41730;51.960;20.158;2022-12-29T14:36:05;16.00;;;7.20;;
55800;SDS011;41730;51.960;20.158;2022-12-29T14:38:51;11.50;;;6.00;;
55800;SDS011;41730;51.960;20.158;2022-12-29T14:41:29;12.60;;;6.70;;
55800;SDS011;41730;51.960;20.158;2022-12-29T14:44:11;15.40;;;6.40;;
55800;SDS011;41730;51.960;20.158;2022-12-29T14:46:54;13.40;;;6.70;;
55800;SDS011;41730;51.960;20.158;2022-12-29T14:49:29;16.00;;;7.30;;
55800;SDS011;41730;51.960;20.158;2022-12-29T14:52:15;17.20;;;8.80;;
55800;SDS011;41730;51.960;20.158;2022-12-29T14:54:53;17.20;;;8.10;;
55800;SDS011;41730;51.960;20.158;2022-12-29T14:57:34;17.60;;;8.00;;
55800;SDS011;41730;51.960;20.158;2022-12-29T15:00:21;12.70;;;7.30;;
55800;SDS011;41730;51.960;20.158;2022-12-29T15:03:01;17.60;;;7.80;;
55800;SDS011;41730;51.960;20.158;2022-12-29T15:05:36;22.00;;;8.00;;
55800;SDS011;41730;51.960;20.158;2022-12-29T15:08:16;15.60;;;7.80;;
55800;SDS011;41730;51.960;20.158;2022-12-29T15:10:51;14.50;;;6.90;;
55800;SDS011;41730;51.960;20.158;2022-12-29T15:13:32;15.90;;;7.40;;
55800;SDS011;41730;51.960;20.158;2022-12-29T15:16:17;11.70;;;6.90;;
55800;SDS011;41730;51.960;20.158;2022-12-29T15:18:53;17.80;;;7.50;;
55800;SDS011;41730;51.960;20.158;2022-12-29T15:21:27;16.00;;;8.20;;
55800;SDS011;41730;51.960;20.158;2022-12-29T15:24:01;16.80;;;8.30;;
55800;SDS011;41730;51.960;20.158;2022-12-29T15:26:38;16.00;;;8.60;;
55800;SDS011;41730;51.960;20.158;2022-12-29T15:32:14;16.80;;;8.10;;
55800;SDS011;41730;51.960;20.158;2022-12-29T15:34:50;14.00;;;7.30;;
55800;SDS011;41730;51.960;20.158;2022-12-29T15:37:24;14.70;;;7.20;;
55800;SDS011;41730;51.960;20.158;2022-12-29T15:39:57;14.30;;;6.90;;
55800;SDS011;41730;51.960;20.158;2022-12-29T15:42:32;14.50;;;7.90;;
55800;SDS011;41730;51.960;20.158;2022-12-29T15:45:17;14.80;;;7.80;;
55800;SDS011;41730;51.960;20.158;2022-12-29T15:47:49;13.80;;;6.90;;
55800;SDS011;41730;51.960;20.158;2022-12-29T15:50:26;14.00;;;7.00;;
55800;SDS011;41730;51.960;20.158;2022-12-29T15:52:59;13.30;;;7.00;;
55800;SDS011;41730;51.960;20.158;2022-12-29T15:55:33;12.80;;;7.20;;